createdAt,value
2022-08-20T00:02:10.744Z,2.22
2022-08-20T00:04:39.460Z,3.13
2022-08-20T00:07:07.672Z,2.42
2022-08-20T00:09:36.503Z,2.88
2022-08-20T00:12:06.467Z,2.78
2022-08-20T00:14:34.529Z,2.75
2022-08-20T00:17:02.762Z,4.05
2022-08-20T00:19:30.181Z,2.85
2022-08-20T00:21:58.381Z,3.03
2022-08-20T00:24:26.593Z,2.20
2022-08-20T00:26:53.726Z,2.13
2022-08-20T00:29:22.431Z,2.22
2022-08-20T00:31:51.236Z,2.72
2022-08-20T00:34:18.709Z,3.45
2022-08-20T00:36:45.875Z,2.35
2022-08-20T00:39:14.157Z,2.60
2022-08-20T00:41:41.311Z,2.65
2022-08-20T00:44:12.950Z,3.63
2022-08-20T00:46:42.501Z,1.90
2022-08-20T00:49:18.418Z,2.42
2022-08-20T00:51:53.421Z,2.20
2022-08-20T00:55:01.459Z,2.00
2022-08-20T00:57:59.029Z,2.00
2022-08-20T01:00:31.319Z,2.20
2022-08-20T01:03:00.609Z,2.00
2022-08-20T01:05:29.855Z,2.63
2022-08-20T01:07:58.533Z,2.05
2022-08-20T01:10:30.024Z,1.70
2022-08-20T01:12:59.937Z,1.80
2022-08-20T01:15:31.983Z,2.15
2022-08-20T01:20:40.330Z,2.03
2022-08-20T01:23:30.208Z,2.10
2022-08-20T01:26:27.605Z,1.80
2022-08-20T01:29:01.908Z,2.45
2022-08-20T01:31:36.094Z,2.10
2022-08-20T01:34:07.247Z,2.60
2022-08-20T01:36:46.461Z,2.07
2022-08-20T01:39:20.242Z,2.35
2022-08-20T01:41:57.182Z,3.53
2022-08-20T01:44:25.460Z,2.13
2022-08-20T01:46:57.644Z,2.25
2022-08-20T01:49:35.254Z,2.22
2022-08-20T01:52:08.537Z,2.75
2022-08-20T01:54:36.202Z,3.90
2022-08-20T01:57:12.379Z,2.58
2022-08-20T01:59:40.661Z,2.90
2022-08-20T02:02:10.000Z,2.38
2022-08-20T02:04:37.749Z,2.10
2022-08-20T02:07:07.753Z,2.97
2022-08-20T02:09:39.502Z,2.50
2022-08-20T02:12:10.161Z,2.20
2022-08-20T02:14:44.014Z,2.25
2022-08-20T02:17:12.837Z,3.03
2022-08-20T02:19:45.053Z,2.58
2022-08-20T02:22:25.892Z,2.65
2022-08-20T02:24:53.368Z,2.10
2022-08-20T02:27:24.051Z,2.15
2022-08-20T02:29:52.431Z,2.30
2022-08-20T02:32:25.127Z,2.42
2022-08-20T02:35:03.801Z,2.08
2022-08-20T02:37:32.170Z,2.92
2022-08-20T02:39:59.862Z,1.98
2022-08-20T02:42:27.593Z,2.28
2022-08-20T02:44:55.091Z,2.40
2022-08-20T02:47:22.442Z,2.60
2022-08-20T02:49:49.607Z,3.13
2022-08-20T02:52:16.814Z,2.63
2022-08-20T02:54:44.015Z,2.47
2022-08-20T02:57:16.234Z,2.40
2022-08-20T02:59:45.302Z,2.78
2022-08-20T03:02:13.319Z,3.00
2022-08-20T03:04:41.662Z,2.58
2022-08-20T03:07:13.116Z,2.60
2022-08-20T03:09:41.319Z,2.97
2022-08-20T03:12:08.911Z,3.35
2022-08-20T03:14:37.204Z,2.90
2022-08-20T03:17:04.828Z,3.05
2022-08-20T03:19:32.133Z,2.65
2022-08-20T03:21:59.297Z,3.13
2022-08-20T03:24:26.457Z,2.20
2022-08-20T03:26:53.772Z,3.15
2022-08-20T03:29:21.117Z,2.40
2022-08-20T03:31:48.282Z,3.75
2022-08-20T03:34:15.537Z,2.60
2022-08-20T03:36:42.901Z,2.55
2022-08-20T03:39:13.477Z,2.63
2022-08-20T03:41:40.915Z,2.50
2022-08-20T03:44:08.050Z,2.10
2022-08-20T03:46:36.102Z,4.05
2022-08-20T03:49:04.008Z,2.80
2022-08-20T03:51:43.452Z,2.80
2022-08-20T03:54:19.940Z,2.00
2022-08-20T03:56:47.406Z,2.35
2022-08-20T03:59:14.535Z,2.28
2022-08-20T04:01:46.008Z,3.65
2022-08-20T04:04:15.040Z,2.00
2022-08-20T04:06:42.880Z,2.20
2022-08-20T04:09:11.668Z,1.77
2022-08-20T04:11:41.120Z,2.92
2022-08-20T04:14:11.087Z,1.70
2022-08-20T04:16:40.595Z,1.88
2022-08-20T04:19:08.399Z,2.38
2022-08-20T04:21:37.055Z,2.20
2022-08-20T04:24:06.226Z,4.13
2022-08-20T04:26:35.751Z,2.50
2022-08-20T04:29:03.890Z,2.50
2022-08-20T04:31:34.278Z,2.10
2022-08-20T04:34:04.456Z,2.05
2022-08-20T04:36:31.861Z,2.05
2022-08-20T04:38:59.127Z,2.25
2022-08-20T04:41:26.462Z,1.63
2022-08-20T04:43:55.964Z,2.55
2022-08-20T04:46:26.152Z,1.92
2022-08-20T04:48:54.485Z,2.50
2022-08-20T04:51:22.781Z,2.08
2022-08-20T04:53:54.005Z,1.88
2022-08-20T04:56:32.026Z,2.47
2022-08-20T04:59:02.374Z,2.40
2022-08-20T05:01:29.980Z,2.78
2022-08-20T05:03:58.429Z,2.17
2022-08-20T05:06:30.340Z,2.50
2022-08-20T05:11:36.067Z,1.95
2022-08-20T05:14:09.503Z,2.20
2022-08-20T05:16:39.477Z,2.28
2022-08-20T05:19:09.669Z,2.05
2022-08-20T05:21:37.802Z,2.55
2022-08-20T05:24:06.419Z,2.30
2022-08-20T05:26:34.416Z,2.63
2022-08-20T05:29:02.193Z,2.35
2022-08-20T05:31:33.313Z,4.07
2022-08-20T05:34:11.514Z,3.08
2022-08-20T05:36:42.821Z,2.08
2022-08-20T05:39:10.699Z,2.35
2022-08-20T05:41:39.328Z,2.67
2022-08-20T05:44:10.921Z,2.08
2022-08-20T05:46:41.009Z,2.50
2022-08-20T05:49:11.995Z,2.38
2022-08-20T05:51:39.658Z,2.30
2022-08-20T05:54:07.577Z,2.72
2022-08-20T05:56:36.029Z,2.58
2022-08-20T05:59:05.166Z,2.30
2022-08-20T06:01:34.871Z,3.03
2022-08-20T06:04:21.457Z,3.15
2022-08-20T06:06:51.169Z,2.50
2022-08-20T06:09:31.820Z,2.72
2022-08-20T06:12:06.342Z,2.50
2022-08-20T06:14:34.366Z,2.70
2022-08-20T06:17:09.423Z,3.10
2022-08-20T06:19:37.993Z,2.60
2022-08-20T06:22:18.195Z,2.47
2022-08-20T06:24:48.487Z,2.90
2022-08-20T06:27:17.547Z,2.85
2022-08-20T06:29:44.708Z,2.90
2022-08-20T06:32:12.300Z,3.47
2022-08-20T06:34:50.991Z,2.65
2022-08-20T06:37:27.653Z,3.40
2022-08-20T06:40:13.488Z,2.83
2022-08-20T06:42:48.096Z,2.72
2022-08-20T06:45:20.870Z,3.22
2022-08-20T06:50:47.731Z,2.58
2022-08-20T06:53:19.438Z,2.78
2022-08-20T06:55:52.280Z,2.75
2022-08-20T06:58:32.786Z,2.80
2022-08-20T07:01:11.214Z,3.60
2022-08-20T07:03:55.443Z,3.05
2022-08-20T07:06:25.848Z,3.05
2022-08-20T07:08:56.502Z,2.88
2022-08-20T07:11:28.088Z,3.03
2022-08-20T07:13:58.797Z,2.88
2022-08-20T07:16:26.611Z,3.15
2022-08-20T07:18:53.997Z,2.58
2022-08-20T07:21:21.278Z,3.10
2022-08-20T07:23:49.599Z,3.45
2022-08-20T07:26:17.941Z,3.60
2022-08-20T07:28:45.420Z,3.95
2022-08-20T07:31:31.579Z,3.10
2022-08-20T07:34:00.417Z,3.50
2022-08-20T07:36:28.264Z,3.00
2022-08-20T07:38:56.865Z,3.13
2022-08-20T07:41:24.545Z,3.20
2022-08-20T07:43:51.866Z,3.75
2022-08-20T07:46:23.598Z,3.20
2022-08-20T07:48:58.456Z,4.18
2022-08-20T07:51:25.906Z,4.47
2022-08-20T07:53:56.040Z,4.40
2022-08-20T07:56:24.757Z,5.28
2022-08-20T07:58:56.346Z,3.60
2022-08-20T08:01:29.674Z,3.88
2022-08-20T08:03:59.097Z,3.85
2022-08-20T08:06:29.162Z,3.72
2022-08-20T08:09:05.094Z,4.32
2022-08-20T08:11:35.923Z,3.80
2022-08-20T08:14:06.413Z,3.25
2022-08-20T08:16:35.125Z,3.80
2022-08-20T08:19:07.147Z,6.60
2022-08-20T08:24:02.737Z,4.70
2022-08-20T08:26:30.024Z,5.15
2022-08-20T08:28:58.495Z,3.75
2022-08-20T08:31:26.337Z,4.95
2022-08-20T08:33:53.810Z,5.60
2022-08-20T08:36:26.407Z,6.45
2022-08-20T08:38:56.861Z,4.45
2022-08-20T08:41:50.214Z,4.00
2022-08-20T08:44:28.567Z,4.35
2022-08-20T08:47:03.080Z,4.25
2022-08-20T08:49:37.800Z,12.70
2022-08-20T08:52:22.430Z,6.95
2022-08-20T08:54:58.893Z,5.35
2022-08-20T08:57:29.139Z,5.15
2022-08-20T09:00:15.750Z,6.13
2022-08-20T09:03:00.246Z,4.72
2022-08-20T09:05:41.104Z,5.63
2022-08-20T09:08:16.904Z,5.40
2022-08-20T09:10:45.143Z,5.50
2022-08-20T09:13:13.301Z,5.25
2022-08-20T09:15:40.457Z,5.57
2022-08-20T09:18:07.930Z,5.72
2022-08-20T09:20:35.149Z,6.32
2022-08-20T09:23:05.980Z,7.72
2022-08-20T09:25:33.530Z,7.03
2022-08-20T09:28:00.822Z,8.25
2022-08-20T09:30:30.821Z,9.52
2022-08-20T09:33:02.530Z,8.40
2022-08-20T09:35:29.939Z,8.38
2022-08-20T09:37:57.462Z,10.48
2022-08-20T09:40:24.756Z,8.80
2022-08-20T09:42:52.034Z,8.75
2022-08-20T09:45:19.756Z,7.60
2022-08-20T09:47:56.168Z,7.97
2022-08-20T09:50:30.245Z,8.15
2022-08-20T09:52:59.904Z,7.78
2022-08-20T09:55:42.569Z,7.47
2022-08-20T09:58:50.920Z,8.10
2022-08-20T10:01:21.259Z,7.40
2022-08-20T10:03:49.952Z,7.60
2022-08-20T10:06:20.288Z,7.80
2022-08-20T10:08:49.079Z,8.20
2022-08-20T10:11:18.096Z,8.02
2022-08-20T10:13:45.936Z,8.85
2022-08-20T10:16:13.551Z,8.88
2022-08-20T10:18:40.895Z,9.10
2022-08-20T10:21:12.411Z,8.18
2022-08-20T10:23:39.845Z,7.88
2022-08-20T10:26:12.422Z,7.60
2022-08-20T10:28:39.961Z,7.32
2022-08-20T10:31:09.598Z,9.02
2022-08-20T10:33:37.479Z,7.65
2022-08-20T10:36:09.591Z,7.30
2022-08-20T10:38:36.970Z,7.22
2022-08-20T10:41:07.687Z,7.05
2022-08-20T10:43:35.108Z,7.47
2022-08-20T10:46:02.874Z,7.68
2022-08-20T10:48:30.109Z,6.68
2022-08-20T10:50:57.219Z,7.20
2022-08-20T10:53:24.606Z,6.20
2022-08-20T10:55:54.291Z,6.53
2022-08-20T10:58:23.112Z,6.70
2022-08-20T11:00:51.859Z,7.78
2022-08-20T11:03:20.284Z,6.38
2022-08-20T11:05:47.829Z,6.47
2022-08-20T11:08:15.030Z,6.60
2022-08-20T11:11:00.494Z,7.25
2022-08-20T11:13:27.711Z,7.22
2022-08-20T11:15:54.874Z,7.22
2022-08-20T11:18:22.092Z,6.30
2022-08-20T11:20:49.245Z,6.97
2022-08-20T11:23:16.541Z,6.63
2022-08-20T11:25:43.749Z,6.22
2022-08-20T11:28:10.934Z,5.95
2022-08-20T11:30:38.253Z,5.65
2022-08-20T11:33:05.996Z,5.63
2022-08-20T11:35:43.274Z,5.40
2022-08-20T11:38:18.079Z,5.20
2022-08-20T11:40:46.983Z,5.95
2022-08-20T11:43:16.685Z,5.30
2022-08-20T11:45:48.310Z,6.07
2022-08-20T11:48:16.931Z,5.40
2022-08-20T11:50:44.536Z,5.40
2022-08-20T11:53:12.035Z,5.65
2022-08-20T11:55:39.716Z,5.65
2022-08-20T11:58:07.557Z,4.90
2022-08-20T12:00:36.926Z,5.10
2022-08-20T12:03:09.409Z,4.70
2022-08-20T12:05:39.533Z,5.18
2022-08-20T12:08:08.581Z,5.28
2022-08-20T12:10:37.091Z,5.13
2022-08-20T12:13:05.661Z,4.75
2022-08-20T12:15:35.774Z,4.55
2022-08-20T12:18:10.754Z,4.20
2022-08-20T12:20:38.205Z,4.35
2022-08-20T12:23:05.565Z,5.03
2022-08-20T12:25:33.259Z,5.50
2022-08-20T12:28:00.594Z,4.80
2022-08-20T12:30:27.879Z,5.03
2022-08-20T12:32:55.205Z,5.20
2022-08-20T12:35:22.499Z,4.68
2022-08-20T12:37:50.147Z,5.13
2022-08-20T12:40:31.837Z,4.72
2022-08-20T12:43:01.667Z,4.82
2022-08-20T12:45:29.822Z,4.55
2022-08-20T12:48:06.842Z,5.05
2022-08-20T12:50:35.743Z,4.60
2022-08-20T12:53:04.154Z,4.70
2022-08-20T12:55:32.545Z,4.13
2022-08-20T12:58:02.515Z,5.18
2022-08-20T13:00:41.538Z,6.03
2022-08-20T13:03:12.582Z,5.43
2022-08-20T13:05:40.499Z,5.43
2022-08-20T13:08:15.855Z,4.85
2022-08-20T13:10:47.238Z,4.88
2022-08-20T13:13:17.466Z,5.28
2022-08-20T13:15:47.754Z,5.07
2022-08-20T13:18:14.977Z,5.18
2022-08-20T13:20:42.294Z,4.90
2022-08-20T13:23:09.506Z,4.72
2022-08-20T13:25:36.773Z,5.05
2022-08-20T13:28:05.114Z,5.25
2022-08-20T13:30:34.817Z,4.50
2022-08-20T13:33:02.564Z,4.85
2022-08-20T13:35:30.466Z,4.82
2022-08-20T13:37:57.729Z,4.82
2022-08-20T13:40:25.918Z,4.70
2022-08-20T13:42:53.348Z,4.55
2022-08-20T13:45:20.843Z,5.03
2022-08-20T13:47:54.557Z,4.85
2022-08-20T13:50:26.802Z,4.70
2022-08-20T13:52:54.767Z,4.68
2022-08-20T13:55:26.457Z,5.45
2022-08-20T13:57:56.248Z,4.93
2022-08-20T14:00:32.349Z,4.60
2022-08-20T14:03:01.571Z,4.07
2022-08-20T14:05:30.872Z,4.20
2022-08-20T14:08:24.554Z,4.35
2022-08-20T14:10:51.918Z,4.30
2022-08-20T14:13:22.972Z,4.88
2022-08-20T14:15:50.784Z,3.67
2022-08-20T14:18:18.191Z,4.40
2022-08-20T14:20:45.908Z,4.30
2022-08-20T14:23:14.323Z,4.43
2022-08-20T14:25:45.672Z,4.63
2022-08-20T14:28:18.565Z,4.18
2022-08-20T14:30:53.141Z,3.70
2022-08-20T14:33:24.049Z,4.18
2022-08-20T14:35:51.938Z,4.75
2022-08-20T14:38:19.439Z,4.85
2022-08-20T14:40:47.431Z,4.28
2022-08-20T14:43:14.641Z,4.80
2022-08-20T14:45:41.754Z,4.20
2022-08-20T14:48:11.704Z,4.82
2022-08-20T14:50:40.084Z,4.43
2022-08-20T14:53:08.077Z,5.32
2022-08-20T14:55:37.646Z,4.15
2022-08-20T14:58:13.694Z,4.45
2022-08-20T15:00:42.095Z,5.60
2022-08-20T15:03:09.912Z,4.72
2022-08-20T15:05:39.536Z,4.13
2022-08-20T15:08:08.167Z,4.05
2022-08-20T15:10:39.448Z,3.90
2022-08-20T15:13:08.247Z,4.15
2022-08-20T15:15:35.509Z,6.60
2022-08-20T15:18:03.566Z,3.92
2022-08-20T15:20:33.684Z,4.47
2022-08-20T15:23:01.790Z,5.30
2022-08-20T15:25:36.701Z,4.88
2022-08-20T15:28:08.522Z,4.13
2022-08-20T15:30:36.803Z,4.18
2022-08-20T15:33:04.356Z,4.13
2022-08-20T15:35:31.535Z,4.35
2022-08-20T15:38:00.303Z,4.05
2022-08-20T15:40:32.121Z,4.70
2022-08-20T15:43:01.701Z,4.10
2022-08-20T15:45:29.167Z,4.45
2022-08-20T15:48:11.012Z,4.40
2022-08-20T15:51:11.058Z,4.28
2022-08-20T15:54:15.629Z,4.38
2022-08-20T15:57:10.408Z,4.28
2022-08-20T16:00:11.926Z,4.60
2022-08-20T16:03:00.021Z,4.70
2022-08-20T16:06:01.013Z,4.60
2022-08-20T16:09:22.063Z,4.43
2022-08-20T16:12:05.005Z,5.13
2022-08-20T16:14:40.507Z,4.30
2022-08-20T16:17:16.363Z,4.50
2022-08-20T16:20:24.827Z,4.32
2022-08-20T16:23:00.588Z,4.53
2022-08-20T16:26:08.790Z,4.32
2022-08-20T16:29:19.204Z,4.15
2022-08-20T16:32:17.283Z,3.95
2022-08-20T16:34:58.161Z,4.22
2022-08-20T16:37:42.019Z,4.32
2022-08-20T16:40:31.592Z,3.78
2022-08-20T16:43:06.879Z,4.20
2022-08-20T16:46:02.350Z,4.32
2022-08-20T16:48:44.173Z,3.83
2022-08-20T16:51:26.225Z,3.85
2022-08-20T16:56:48.993Z,3.90
2022-08-20T16:59:27.041Z,4.10
2022-08-20T17:02:10.754Z,3.95
2022-08-20T17:04:58.476Z,3.85
2022-08-20T17:08:03.984Z,5.18
2022-08-20T17:11:01.794Z,3.42
2022-08-20T17:13:37.250Z,4.13
2022-08-20T17:16:15.627Z,4.95
2022-08-20T17:18:45.750Z,4.30
2022-08-20T17:21:28.929Z,4.45
2022-08-20T17:24:04.195Z,4.80
2022-08-20T17:26:38.049Z,4.88
2022-08-20T17:29:18.815Z,4.82
2022-08-20T17:31:53.611Z,4.82
2022-08-20T17:34:32.274Z,4.85
2022-08-20T17:37:09.032Z,5.75
2022-08-20T17:39:47.993Z,5.03
2022-08-20T17:42:21.763Z,4.85
2022-08-20T17:45:34.945Z,5.07
2022-08-20T17:48:05.403Z,5.35
2022-08-20T17:50:37.366Z,5.25
2022-08-20T17:53:27.153Z,5.13
2022-08-20T17:56:09.430Z,4.93
2022-08-20T17:58:54.650Z,4.82
2022-08-20T18:01:23.918Z,4.70
2022-08-20T18:03:53.269Z,5.32
2022-08-20T18:06:38.775Z,4.85
2022-08-20T18:09:27.126Z,4.85
2022-08-20T18:12:33.465Z,4.53
2022-08-20T18:15:24.893Z,4.45
2022-08-20T18:18:22.630Z,4.82
2022-08-20T18:21:26.386Z,5.00
2022-08-20T18:24:13.067Z,5.80
2022-08-20T18:26:58.883Z,4.60
2022-08-20T18:29:35.904Z,5.00
2022-08-20T18:32:20.989Z,4.63
2022-08-20T18:34:48.771Z,4.85
2022-08-20T18:37:15.872Z,5.28
2022-08-20T18:39:48.383Z,4.80
2022-08-20T18:42:36.936Z,4.47
2022-08-20T18:45:06.641Z,3.90
2022-08-20T18:47:33.759Z,3.90
2022-08-20T18:50:15.878Z,3.10
2022-08-20T18:53:14.963Z,2.83
2022-08-20T18:55:48.573Z,2.40
2022-08-20T18:58:39.920Z,2.35
2022-08-20T19:01:14.426Z,1.90
2022-08-20T19:03:49.555Z,1.95
2022-08-20T19:06:26.189Z,2.90
2022-08-20T19:09:10.386Z,1.35
2022-08-20T19:11:52.696Z,2.00
2022-08-20T19:14:58.242Z,1.23
2022-08-20T19:17:44.988Z,1.95
2022-08-20T19:20:19.738Z,1.73
2022-08-20T19:22:49.815Z,1.98
2022-08-20T19:25:28.299Z,1.20
2022-08-20T19:28:05.340Z,1.45
2022-08-20T19:30:41.094Z,1.63
2022-08-20T19:33:09.992Z,1.45
2022-08-20T19:35:37.751Z,1.00
2022-08-20T19:38:14.780Z,1.70
2022-08-20T19:40:46.059Z,1.85
2022-08-20T19:43:19.542Z,1.42
2022-08-20T19:45:54.489Z,1.00
2022-08-20T19:48:29.498Z,1.30
2022-08-20T19:51:30.248Z,1.27
2022-08-20T19:53:58.073Z,2.58
2022-08-20T19:56:28.335Z,1.58
2022-08-20T19:59:09.141Z,1.42
2022-08-20T20:01:36.936Z,1.35
2022-08-20T20:04:18.174Z,1.77
2022-08-20T20:06:48.620Z,2.43
2022-08-20T20:09:25.428Z,2.58
2022-08-20T20:11:57.250Z,1.52
2022-08-20T20:14:36.658Z,1.48
2022-08-20T20:17:14.553Z,1.67
2022-08-20T20:19:59.099Z,1.70
2022-08-20T20:22:33.415Z,1.67
2022-08-20T20:25:19.619Z,1.67
2022-08-20T20:28:05.755Z,2.03
2022-08-20T20:30:35.385Z,2.35
2022-08-20T20:33:20.015Z,2.55
2022-08-20T20:35:47.422Z,1.33
2022-08-20T20:38:27.626Z,1.35
2022-08-20T20:41:00.191Z,1.58
2022-08-20T20:43:40.012Z,1.45
2022-08-20T20:46:18.150Z,1.50
2022-08-20T20:49:13.489Z,1.23
2022-08-20T20:51:53.674Z,1.83
2022-08-20T20:54:27.743Z,1.65
2022-08-20T20:57:03.062Z,1.90
2022-08-20T20:59:33.634Z,3.30
2022-08-20T21:02:01.857Z,1.42
2022-08-20T21:04:29.967Z,1.23
2022-08-20T21:06:59.621Z,1.55
2022-08-20T21:09:27.147Z,2.13
2022-08-20T21:11:54.293Z,1.80
2022-08-20T21:14:21.596Z,1.90
2022-08-20T21:16:48.842Z,1.10
2022-08-20T21:19:16.232Z,2.13
2022-08-20T21:21:44.276Z,2.08
2022-08-20T21:24:12.062Z,1.80
2022-08-20T21:26:40.201Z,1.65
2022-08-20T21:29:09.828Z,1.63
2022-08-20T21:31:43.769Z,1.48
2022-08-20T21:34:13.559Z,1.20
2022-08-20T21:36:41.073Z,2.25
2022-08-20T21:39:09.117Z,1.50
2022-08-20T21:41:37.342Z,1.13
2022-08-20T21:44:13.112Z,2.65
2022-08-20T21:46:40.437Z,1.58
2022-08-20T21:49:07.587Z,2.03
2022-08-20T21:51:36.031Z,1.42
2022-08-20T21:54:03.369Z,3.83
2022-08-20T21:56:32.652Z,1.27
2022-08-20T21:59:00.982Z,0.90
2022-08-20T22:01:28.525Z,1.00
2022-08-20T22:03:55.811Z,1.38
2022-08-20T22:06:22.876Z,1.45
2022-08-20T22:08:50.169Z,0.98
2022-08-20T22:11:17.882Z,1.60
2022-08-20T22:13:45.957Z,1.20
2022-08-20T22:16:18.658Z,1.10
2022-08-20T22:18:47.534Z,1.75
2022-08-20T22:21:20.111Z,1.38
2022-08-20T22:23:48.457Z,1.23
2022-08-20T22:26:16.620Z,1.50
2022-08-20T22:28:44.372Z,1.25
2022-08-20T22:31:28.054Z,1.85
2022-08-20T22:33:56.746Z,1.52
2022-08-20T22:36:25.579Z,2.00
2022-08-20T22:38:55.780Z,1.48
2022-08-20T22:41:23.441Z,1.30
2022-08-20T22:43:56.575Z,1.48
2022-08-20T22:46:27.487Z,3.33
2022-08-20T22:48:56.114Z,1.83
2022-08-20T22:51:38.827Z,1.55
2022-08-20T22:54:10.513Z,2.78
2022-08-20T22:56:38.855Z,2.50
2022-08-20T22:59:08.133Z,2.10
2022-08-20T23:01:35.778Z,1.95
2022-08-20T23:04:34.779Z,2.65
2022-08-20T23:07:04.326Z,1.73
2022-08-20T23:09:31.781Z,1.92
2022-08-20T23:11:59.244Z,2.97
2022-08-20T23:14:27.053Z,2.30
2022-08-20T23:17:19.699Z,2.17
2022-08-20T23:22:16.252Z,1.70
2022-08-20T23:24:43.999Z,1.63
2022-08-20T23:27:20.240Z,1.35
2022-08-20T23:29:48.609Z,2.15
2022-08-20T23:32:15.903Z,1.92
2022-08-20T23:34:44.657Z,1.60
2022-08-20T23:37:12.554Z,2.80
2022-08-20T23:39:40.281Z,3.80
2022-08-20T23:42:07.430Z,1.50
2022-08-20T23:44:34.602Z,3.53
2022-08-20T23:47:03.122Z,1.98
2022-08-20T23:49:31.684Z,1.88
2022-08-20T23:52:00.686Z,1.75
2022-08-20T23:54:30.752Z,2.30
2022-08-20T23:56:57.809Z,2.63
2022-08-20T23:59:25.956Z,1.60
